sensor_id;sensor_type;location;lat;lon;timestamp;temperature;humidity
22491;DHT22;11412;50.802;4.350;2022-12-18T00:01:20;-2.90;99.90
22491;DHT22;11412;50.802;4.350;2022-12-18T00:03:46;-3.00;99.90
22491;DHT22;11412;50.802;4.350;2022-12-18T00:06:12;-3.10;99.90
22491;DHT22;11412;50.802;4.350;2022-12-18T00:08:39;-2.90;99.90
22491;DHT22;11412;50.802;4.350;2022-12-18T00:11:12;-2.90;99.90
22491;DHT22;11412;50.802;4.350;2022-12-18T00:13:37;-2.80;99.90
22491;DHT22;11412;50.802;4.350;2022-12-18T00:16:05;-2.70;99.90
22491;DHT22;11412;50.802;4.350;2022-12-18T00:18:32;-2.80;99.90
22491;DHT22;11412;50.802;4.350;2022-12-18T00:21:06;-2.70;99.90
22491;DHT22;11412;50.802;4.350;2022-12-18T00:23:33;-2.70;99.90
22491;DHT22;11412;50.802;4.350;2022-12-18T00:26:00;-2.70;99.90
22491;DHT22;11412;50.802;4.350;2022-12-18T00:28:26;-2.40;99.90
22491;DHT22;11412;50.802;4.350;2022-12-18T00:31:14;-2.40;99.90
22491;DHT22;11412;50.802;4.350;2022-12-18T00:33:40;-2.30;99.90
22491;DHT22;11412;50.802;4.350;2022-12-18T00:36:09;-2.30;99.90
22491;DHT22;11412;50.802;4.350;2022-12-18T00:38:35;-2.30;99.90
22491;DHT22;11412;50.802;4.350;2022-12-18T00:41:01;-2.30;99.90
22491;DHT22;11412;50.802;4.350;2022-12-18T00:43:27;-2.30;99.90
22491;DHT22;11412;50.802;4.350;2022-12-18T00:45:53;-2.30;99.90
22491;DHT22;11412;50.802;4.350;2022-12-18T00:48:19;-2.20;99.90
22491;DHT22;11412;50.802;4.350;2022-12-18T00:50:45;-2.10;99.90
22491;DHT22;11412;50.802;4.350;2022-12-18T00:53:11;-2.20;99.90
22491;DHT22;11412;50.802;4.350;2022-12-18T00:55:40;-2.10;99.90
22491;DHT22;11412;50.802;4.350;2022-12-18T00:58:07;-2.10;99.90
22491;DHT22;11412;50.802;4.350;2022-12-18T01:00:33;-2.20;99.90
22491;DHT22;11412;50.802;4.350;2022-12-18T01:02:58;-2.40;99.90
22491;DHT22;11412;50.802;4.350;2022-12-18T01:05:25;-2.50;99.90
22491;DHT22;11412;50.802;4.350;2022-12-18T01:07:51;-2.50;99.90
22491;DHT22;11412;50.802;4.350;2022-12-18T01:10:16;-2.60;99.90
22491;DHT22;11412;50.802;4.350;2022-12-18T01:12:42;-2.30;99.90
22491;DHT22;11412;50.802;4.350;2022-12-18T01:15:10;-2.20;99.90
22491;DHT22;11412;50.802;4.350;2022-12-18T01:17:36;-2.10;99.90
22491;DHT22;11412;50.802;4.350;2022-12-18T01:20:03;-2.10;99.90
22491;DHT22;11412;50.802;4.350;2022-12-18T01:22:29;-2.10;99.90
22491;DHT22;11412;50.802;4.350;2022-12-18T01:24:55;-1.90;99.90
22491;DHT22;11412;50.802;4.350;2022-12-18T01:27:20;-1.80;99.90
22491;DHT22;11412;50.802;4.350;2022-12-18T01:29:46;-1.90;99.90
22491;DHT22;11412;50.802;4.350;2022-12-18T01:32:11;-1.80;99.90
22491;DHT22;11412;50.802;4.350;2022-12-18T01:34:37;-1.70;99.90
22491;DHT22;11412;50.802;4.350;2022-12-18T01:37:04;-1.80;99.90
22491;DHT22;11412;50.802;4.350;2022-12-18T01:39:30;-1.90;99.90
22491;DHT22;11412;50.802;4.350;2022-12-18T01:41:57;-1.90;99.90
22491;DHT22;11412;50.802;4.350;2022-12-18T01:45:01;-1.60;99.90
22491;DHT22;11412;50.802;4.350;2022-12-18T01:52:50;-1.60;99.90
22491;DHT22;11412;50.802;4.350;2022-12-18T01:55:18;-1.70;99.90
22491;DHT22;11412;50.802;4.350;2022-12-18T01:57:44;-1.70;99.90
22491;DHT22;11412;50.802;4.350;2022-12-18T02:00:14;-1.80;99.90
22491;DHT22;11412;50.802;4.350;2022-12-18T02:02:44;-1.90;99.90
22491;DHT22;11412;50.802;4.350;2022-12-18T02:05:13;-1.80;99.90
22491;DHT22;11412;50.802;4.350;2022-12-18T02:13:23;-2.20;99.90
22491;DHT22;11412;50.802;4.350;2022-12-18T02:18:38;-2.50;99.90
22491;DHT22;11412;50.802;4.350;2022-12-18T02:23:50;-2.80;99.90
22491;DHT22;11412;50.802;4.350;2022-12-18T02:26:27;-2.80;99.90
22491;DHT22;11412;50.802;4.350;2022-12-18T02:29:05;-2.90;99.90
22491;DHT22;11412;50.802;4.350;2022-12-18T02:31:39;-2.90;99.90
22491;DHT22;11412;50.802;4.350;2022-12-18T02:34:08;-3.10;99.90
22491;DHT22;11412;50.802;4.350;2022-12-18T02:36:38;-3.10;99.90
22491;DHT22;11412;50.802;4.350;2022-12-18T02:39:06;-3.20;99.90
22491;DHT22;11412;50.802;4.350;2022-12-18T02:41:33;-3.20;99.90
22491;DHT22;11412;50.802;4.350;2022-12-18T02:44:01;-3.30;99.90
22491;DHT22;11412;50.802;4.350;2022-12-18T02:49:02;-3.40;99.90
22491;DHT22;11412;50.802;4.350;2022-12-18T02:51:40;-3.40;99.90
22491;DHT22;11412;50.802;4.350;2022-12-18T02:57:16;-3.40;99.90
22491;DHT22;11412;50.802;4.350;2022-12-18T02:59:58;-3.20;99.90
22491;DHT22;11412;50.802;4.350;2022-12-18T03:02:34;-3.00;99.90
22491;DHT22;11412;50.802;4.350;2022-12-18T03:05:07;-2.80;99.90
22491;DHT22;11412;50.802;4.350;2022-12-18T03:08:09;-2.80;99.90
22491;DHT22;11412;50.802;4.350;2022-12-18T03:10:48;-2.50;99.90
22491;DHT22;11412;50.802;4.350;2022-12-18T03:13:23;-2.50;99.90
22491;DHT22;11412;50.802;4.350;2022-12-18T03:15:52;-2.50;99.90
22491;DHT22;11412;50.802;4.350;2022-12-18T03:21:11;-2.50;99.90
22491;DHT22;11412;50.802;4.350;2022-12-18T03:23:45;-2.50;99.90
22491;DHT22;11412;50.802;4.350;2022-12-18T03:26:15;-2.60;99.90
22491;DHT22;11412;50.802;4.350;2022-12-18T03:28:51;-2.60;99.90
22491;DHT22;11412;50.802;4.350;2022-12-18T03:31:19;-2.50;99.90
22491;DHT22;11412;50.802;4.350;2022-12-18T03:33:58;-2.60;99.90
22491;DHT22;11412;50.802;4.350;2022-12-18T03:36:25;-2.60;99.90
22491;DHT22;11412;50.802;4.350;2022-12-18T03:38:52;-2.60;99.90
22491;DHT22;11412;50.802;4.350;2022-12-18T03:41:33;-2.50;99.90
22491;DHT22;11412;50.802;4.350;2022-12-18T03:46:50;-2.50;99.90
22491;DHT22;11412;50.802;4.350;2022-12-18T03:49:38;-2.60;99.90
22491;DHT22;11412;50.802;4.350;2022-12-18T03:52:09;-2.60;99.90
22491;DHT22;11412;50.802;4.350;2022-12-18T03:54:35;-2.60;99.90
22491;DHT22;11412;50.802;4.350;2022-12-18T03:57:18;-2.60;99.90
22491;DHT22;11412;50.802;4.350;2022-12-18T03:59:46;-2.50;99.90
22491;DHT22;11412;50.802;4.350;2022-12-18T04:02:14;-2.60;99.90
22491;DHT22;11412;50.802;4.350;2022-12-18T04:04:42;-2.60;99.90
22491;DHT22;11412;50.802;4.350;2022-12-18T04:07:08;-2.70;99.90
22491;DHT22;11412;50.802;4.350;2022-12-18T04:09:36;-2.80;99.90
22491;DHT22;11412;50.802;4.350;2022-12-18T04:12:03;-2.80;99.90
22491;DHT22;11412;50.802;4.350;2022-12-18T04:14:29;-2.80;99.90
22491;DHT22;11412;50.802;4.350;2022-12-18T04:16:55;-2.70;99.90
22491;DHT22;11412;50.802;4.350;2022-12-18T04:19:20;-2.70;99.90
22491;DHT22;11412;50.802;4.350;2022-12-18T04:21:46;-2.80;99.90
22491;DHT22;11412;50.802;4.350;2022-12-18T04:24:11;-3.00;99.90
22491;DHT22;11412;50.802;4.350;2022-12-18T04:26:37;-3.00;99.90
22491;DHT22;11412;50.802;4.350;2022-12-18T04:29:03;-3.10;99.90
22491;DHT22;11412;50.802;4.350;2022-12-18T04:31:29;-3.30;99.90
22491;DHT22;11412;50.802;4.350;2022-12-18T04:33:54;-3.40;99.90
22491;DHT22;11412;50.802;4.350;2022-12-18T04:36:20;-3.50;99.90
22491;DHT22;11412;50.802;4.350;2022-12-18T04:38:46;-3.60;99.90
22491;DHT22;11412;50.802;4.350;2022-12-18T04:41:12;-3.60;99.90
22491;DHT22;11412;50.802;4.350;2022-12-18T04:43:37;-3.70;99.90
22491;DHT22;11412;50.802;4.350;2022-12-18T04:46:07;-3.80;99.90
22491;DHT22;11412;50.802;4.350;2022-12-18T04:48:33;-3.80;99.90
22491;DHT22;11412;50.802;4.350;2022-12-18T04:50:59;-3.90;99.90
22491;DHT22;11412;50.802;4.350;2022-12-18T04:53:25;-3.90;99.90
22491;DHT22;11412;50.802;4.350;2022-12-18T04:56:01;-3.90;99.90
22491;DHT22;11412;50.802;4.350;2022-12-18T04:58:27;-4.00;99.90
22491;DHT22;11412;50.802;4.350;2022-12-18T05:00:52;-4.10;99.90
22491;DHT22;11412;50.802;4.350;2022-12-18T05:03:18;-4.10;99.90
22491;DHT22;11412;50.802;4.350;2022-12-18T05:05:44;-4.10;99.90
22491;DHT22;11412;50.802;4.350;2022-12-18T05:08:09;-4.20;99.90
22491;DHT22;11412;50.802;4.350;2022-12-18T05:10:35;-4.10;99.90
22491;DHT22;11412;50.802;4.350;2022-12-18T05:13:00;-4.10;99.90
22491;DHT22;11412;50.802;4.350;2022-12-18T05:15:30;-4.10;99.90
22491;DHT22;11412;50.802;4.350;2022-12-18T05:17:57;-4.10;99.90
22491;DHT22;11412;50.802;4.350;2022-12-18T05:20:23;-3.90;99.90
22491;DHT22;11412;50.802;4.350;2022-12-18T05:22:50;-3.90;99.90
22491;DHT22;11412;50.802;4.350;2022-12-18T05:25:16;-3.80;99.90
22491;DHT22;11412;50.802;4.350;2022-12-18T05:27:41;-3.60;99.90
22491;DHT22;11412;50.802;4.350;2022-12-18T05:30:08;-3.30;99.90
22491;DHT22;11412;50.802;4.350;2022-12-18T05:32:34;-3.30;99.90
22491;DHT22;11412;50.802;4.350;2022-12-18T05:34:59;-3.20;99.90
22491;DHT22;11412;50.802;4.350;2022-12-18T05:37:25;-3.10;99.90
22491;DHT22;11412;50.802;4.350;2022-12-18T05:39:50;-3.20;99.90
22491;DHT22;11412;50.802;4.350;2022-12-18T05:42:16;-3.40;99.90
22491;DHT22;11412;50.802;4.350;2022-12-18T05:44:43;-3.50;99.90
22491;DHT22;11412;50.802;4.350;2022-12-18T05:47:08;-3.60;99.90
22491;DHT22;11412;50.802;4.350;2022-12-18T05:49:34;-3.60;99.90
22491;DHT22;11412;50.802;4.350;2022-12-18T05:52:01;-3.70;99.90
22491;DHT22;11412;50.802;4.350;2022-12-18T05:54:30;-3.80;99.90
22491;DHT22;11412;50.802;4.350;2022-12-18T05:56:56;-3.80;99.90
22491;DHT22;11412;50.802;4.350;2022-12-18T05:59:22;-3.90;99.90
22491;DHT22;11412;50.802;4.350;2022-12-18T06:01:48;-3.90;99.90
22491;DHT22;11412;50.802;4.350;2022-12-18T06:04:14;-3.90;99.90
22491;DHT22;11412;50.802;4.350;2022-12-18T06:06:39;-3.90;99.90
22491;DHT22;11412;50.802;4.350;2022-12-18T06:09:05;-3.80;99.90
22491;DHT22;11412;50.802;4.350;2022-12-18T06:11:35;-4.00;99.90
22491;DHT22;11412;50.802;4.350;2022-12-18T06:14:02;-3.90;99.90
22491;DHT22;11412;50.802;4.350;2022-12-18T06:16:28;-4.00;99.90
22491;DHT22;11412;50.802;4.350;2022-12-18T06:19:01;-4.10;99.90
22491;DHT22;11412;50.802;4.350;2022-12-18T06:21:28;-4.00;99.90
22491;DHT22;11412;50.802;4.350;2022-12-18T06:23:55;-4.10;99.90
22491;DHT22;11412;50.802;4.350;2022-12-18T06:26:21;-4.10;99.90
22491;DHT22;11412;50.802;4.350;2022-12-18T06:28:46;-4.10;99.90
22491;DHT22;11412;50.802;4.350;2022-12-18T06:31:12;-4.10;99.90
22491;DHT22;11412;50.802;4.350;2022-12-18T06:33:38;-4.20;99.90
22491;DHT22;11412;50.802;4.350;2022-12-18T06:36:05;-4.20;99.90
22491;DHT22;11412;50.802;4.350;2022-12-18T06:38:32;-4.20;99.90
22491;DHT22;11412;50.802;4.350;2022-12-18T06:40:58;-4.10;99.90
22491;DHT22;11412;50.802;4.350;2022-12-18T06:43:24;-4.10;99.90
22491;DHT22;11412;50.802;4.350;2022-12-18T06:45:50;-4.10;99.90
22491;DHT22;11412;50.802;4.350;2022-12-18T06:48:21;-4.20;99.90
22491;DHT22;11412;50.802;4.350;2022-12-18T06:50:47;-4.10;99.90
22491;DHT22;11412;50.802;4.350;2022-12-18T06:53:13;-4.00;99.90
22491;DHT22;11412;50.802;4.350;2022-12-18T06:55:38;-3.80;99.90
22491;DHT22;11412;50.802;4.350;2022-12-18T06:58:04;-3.80;99.90
22491;DHT22;11412;50.802;4.350;2022-12-18T07:00:30;-3.60;99.90
22491;DHT22;11412;50.802;4.350;2022-12-18T07:02:55;-3.20;99.90
22491;DHT22;11412;50.802;4.350;2022-12-18T07:05:21;-2.90;99.90
22491;DHT22;11412;50.802;4.350;2022-12-18T07:07:47;-2.80;99.90
22491;DHT22;11412;50.802;4.350;2022-12-18T07:10:12;-2.70;99.90
22491;DHT22;11412;50.802;4.350;2022-12-18T07:12:38;-2.80;99.90
22491;DHT22;11412;50.802;4.350;2022-12-18T07:15:04;-2.90;99.90
22491;DHT22;11412;50.802;4.350;2022-12-18T07:17:30;-3.00;99.90
22491;DHT22;11412;50.802;4.350;2022-12-18T07:19:56;-3.00;99.90
22491;DHT22;11412;50.802;4.350;2022-12-18T07:22:21;-3.10;99.90
22491;DHT22;11412;50.802;4.350;2022-12-18T07:24:47;-3.20;99.90
22491;DHT22;11412;50.802;4.350;2022-12-18T07:27:13;-3.20;99.90
22491;DHT22;11412;50.802;4.350;2022-12-18T07:29:38;-3.00;99.90
22491;DHT22;11412;50.802;4.350;2022-12-18T07:32:04;-2.80;99.90
22491;DHT22;11412;50.802;4.350;2022-12-18T07:34:30;-2.50;99.90
22491;DHT22;11412;50.802;4.350;2022-12-18T07:36:55;-2.40;99.90
22491;DHT22;11412;50.802;4.350;2022-12-18T07:39:21;-2.40;99.90
22491;DHT22;11412;50.802;4.350;2022-12-18T07:41:47;-2.30;99.90
22491;DHT22;11412;50.802;4.350;2022-12-18T07:44:32;-2.30;99.90
22491;DHT22;11412;50.802;4.350;2022-12-18T07:46:58;-2.30;99.90
22491;DHT22;11412;50.802;4.350;2022-12-18T07:49:24;-2.00;99.90
22491;DHT22;11412;50.802;4.350;2022-12-18T07:51:49;-2.00;99.90
22491;DHT22;11412;50.802;4.350;2022-12-18T07:54:15;-2.10;99.90
22491;DHT22;11412;50.802;4.350;2022-12-18T07:56:41;-2.00;99.90
22491;DHT22;11412;50.802;4.350;2022-12-18T07:59:06;-2.10;99.90
22491;DHT22;11412;50.802;4.350;2022-12-18T08:01:33;-2.10;99.90
22491;DHT22;11412;50.802;4.350;2022-12-18T08:03:58;-1.90;99.90
22491;DHT22;11412;50.802;4.350;2022-12-18T08:06:24;-2.10;99.90
22491;DHT22;11412;50.802;4.350;2022-12-18T08:08:54;-2.00;99.90
22491;DHT22;11412;50.802;4.350;2022-12-18T08:11:20;-1.80;99.90
22491;DHT22;11412;50.802;4.350;2022-12-18T08:13:46;-1.80;99.90
22491;DHT22;11412;50.802;4.350;2022-12-18T08:16:12;-1.60;99.90
22491;DHT22;11412;50.802;4.350;2022-12-18T08:18:38;-1.60;99.90
22491;DHT22;11412;50.802;4.350;2022-12-18T08:21:15;-1.50;99.90
22491;DHT22;11412;50.802;4.350;2022-12-18T08:23:42;-1.40;99.90
22491;DHT22;11412;50.802;4.350;2022-12-18T08:26:08;-1.30;99.90
22491;DHT22;11412;50.802;4.350;2022-12-18T08:28:34;-1.20;99.90
22491;DHT22;11412;50.802;4.350;2022-12-18T08:30:59;-1.10;99.90
22491;DHT22;11412;50.802;4.350;2022-12-18T08:33:25;-1.10;99.90
22491;DHT22;11412;50.802;4.350;2022-12-18T08:35:52;-1.10;99.90
22491;DHT22;11412;50.802;4.350;2022-12-18T08:38:17;-0.90;99.90
22491;DHT22;11412;50.802;4.350;2022-12-18T08:40:43;-0.80;99.90
22491;DHT22;11412;50.802;4.350;2022-12-18T08:43:12;-0.80;99.90
22491;DHT22;11412;50.802;4.350;2022-12-18T08:45:56;-0.80;99.90
22491;DHT22;11412;50.802;4.350;2022-12-18T08:48:22;-0.70;99.90
22491;DHT22;11412;50.802;4.350;2022-12-18T08:50:58;-0.70;99.90
22491;DHT22;11412;50.802;4.350;2022-12-18T08:53:24;-0.70;99.90
22491;DHT22;11412;50.802;4.350;2022-12-18T08:55:50;-0.60;99.90
22491;DHT22;11412;50.802;4.350;2022-12-18T08:58:15;-0.50;99.90
22491;DHT22;11412;50.802;4.350;2022-12-18T09:00:41;-0.50;99.90
22491;DHT22;11412;50.802;4.350;2022-12-18T09:03:15;-0.40;99.90
22491;DHT22;11412;50.802;4.350;2022-12-18T09:05:41;-0.20;99.90
22491;DHT22;11412;50.802;4.350;2022-12-18T09:08:07;-0.20;99.90
22491;DHT22;11412;50.802;4.350;2022-12-18T09:10:33;-0.20;99.90
22491;DHT22;11412;50.802;4.350;2022-12-18T09:12:59;0.00;99.90
22491;DHT22;11412;50.802;4.350;2022-12-18T09:15:25;-0.10;99.90
22491;DHT22;11412;50.802;4.350;2022-12-18T09:17:51;-0.10;99.90
22491;DHT22;11412;50.802;4.350;2022-12-18T09:20:18;0.10;99.90
22491;DHT22;11412;50.802;4.350;2022-12-18T09:22:44;0.30;99.90
22491;DHT22;11412;50.802;4.350;2022-12-18T09:25:09;0.20;99.90
22491;DHT22;11412;50.802;4.350;2022-12-18T09:27:35;0.40;99.90
22491;DHT22;11412;50.802;4.350;2022-12-18T09:30:01;0.10;99.90
22491;DHT22;11412;50.802;4.350;2022-12-18T09:32:27;0.20;99.90
22491;DHT22;11412;50.802;4.350;2022-12-18T09:34:53;0.10;99.90
22491;DHT22;11412;50.802;4.350;2022-12-18T09:37:18;0.10;99.90
22491;DHT22;11412;50.802;4.350;2022-12-18T09:39:44;0.10;99.90
22491;DHT22;11412;50.802;4.350;2022-12-18T09:42:20;0.30;99.90
22491;DHT22;11412;50.802;4.350;2022-12-18T09:44:50;0.20;99.90
22491;DHT22;11412;50.802;4.350;2022-12-18T09:47:20;0.40;99.90
22491;DHT22;11412;50.802;4.350;2022-12-18T09:50:39;0.50;99.90
22491;DHT22;11412;50.802;4.350;2022-12-18T09:52:43;0.40;99.90
22491;DHT22;11412;50.802;4.350;2022-12-18T09:57:53;0.30;99.90
22491;DHT22;11412;50.802;4.350;2022-12-18T10:00:22;0.30;99.90
22491;DHT22;11412;50.802;4.350;2022-12-18T10:02:50;0.40;99.90
22491;DHT22;11412;50.802;4.350;2022-12-18T10:05:43;0.40;99.90
22491;DHT22;11412;50.802;4.350;2022-12-18T10:08:13;0.50;99.90
22491;DHT22;11412;50.802;4.350;2022-12-18T10:10:53;0.50;99.90
22491;DHT22;11412;50.802;4.350;2022-12-18T10:13:31;0.60;99.90
22491;DHT22;11412;50.802;4.350;2022-12-18T10:16:27;0.60;99.90
22491;DHT22;11412;50.802;4.350;2022-12-18T10:19:17;0.70;99.90
22491;DHT22;11412;50.802;4.350;2022-12-18T10:21:51;1.00;99.90
22491;DHT22;11412;50.802;4.350;2022-12-18T10:24:29;0.90;99.90
22491;DHT22;11412;50.802;4.350;2022-12-18T10:27:30;0.90;99.90
22491;DHT22;11412;50.802;4.350;2022-12-18T10:29:57;0.90;99.90
22491;DHT22;11412;50.802;4.350;2022-12-18T10:32:28;0.80;99.90
22491;DHT22;11412;50.802;4.350;2022-12-18T10:34:56;0.90;99.90
22491;DHT22;11412;50.802;4.350;2022-12-18T10:37:25;1.00;99.90
22491;DHT22;11412;50.802;4.350;2022-12-18T10:40:14;1.20;99.90
22491;DHT22;11412;50.802;4.350;2022-12-18T10:42:40;1.30;99.90
22491;DHT22;11412;50.802;4.350;2022-12-18T10:45:11;1.10;99.90
22491;DHT22;11412;50.802;4.350;2022-12-18T10:47:46;1.40;99.90
22491;DHT22;11412;50.802;4.350;2022-12-18T10:50:33;1.20;99.90
22491;DHT22;11412;50.802;4.350;2022-12-18T10:53:01;1.20;99.90
22491;DHT22;11412;50.802;4.350;2022-12-18T10:55:48;1.50;99.90
22491;DHT22;11412;50.802;4.350;2022-12-18T10:58:26;1.50;99.90
22491;DHT22;11412;50.802;4.350;2022-12-18T11:01:11;1.40;99.90
22491;DHT22;11412;50.802;4.350;2022-12-18T11:06:22;1.40;99.90
22491;DHT22;11412;50.802;4.350;2022-12-18T11:09:19;1.30;99.90
22491;DHT22;11412;50.802;4.350;2022-12-18T11:11:54;1.40;99.90
22491;DHT22;11412;50.802;4.350;2022-12-18T11:14:34;1.70;99.90
22491;DHT22;11412;50.802;4.350;2022-12-18T11:17:22;1.80;99.90
22491;DHT22;11412;50.802;4.350;2022-12-18T11:20:04;1.80;99.90
22491;DHT22;11412;50.802;4.350;2022-12-18T11:22:37;1.70;99.90
22491;DHT22;11412;50.802;4.350;2022-12-18T11:25:18;1.70;99.90
22491;DHT22;11412;50.802;4.350;2022-12-18T11:27:59;1.60;99.90
22491;DHT22;11412;50.802;4.350;2022-12-18T11:30:29;2.00;99.90
22491;DHT22;11412;50.802;4.350;2022-12-18T11:35:53;2.20;99.90
22491;DHT22;11412;50.802;4.350;2022-12-18T11:38:24;2.10;99.90
22491;DHT22;11412;50.802;4.350;2022-12-18T11:43:48;2.10;99.90
22491;DHT22;11412;50.802;4.350;2022-12-18T11:46:30;2.10;99.90
22491;DHT22;11412;50.802;4.350;2022-12-18T11:49:20;2.30;99.90
22491;DHT22;11412;50.802;4.350;2022-12-18T11:52:00;1.90;99.90
22491;DHT22;11412;50.802;4.350;2022-12-18T11:54:28;2.00;99.90
22491;DHT22;11412;50.802;4.350;2022-12-18T11:57:04;1.90;99.90
22491;DHT22;11412;50.802;4.350;2022-12-18T12:07:47;2.60;99.90
22491;DHT22;11412;50.802;4.350;2022-12-18T12:10:47;2.50;99.90
22491;DHT22;11412;50.802;4.350;2022-12-18T12:15:49;2.20;99.90
22491;DHT22;11412;50.802;4.350;2022-12-18T12:21:06;2.10;99.90
22491;DHT22;11412;50.802;4.350;2022-12-18T12:23:40;2.30;99.90
22491;DHT22;11412;50.802;4.350;2022-12-18T12:26:12;2.50;99.90
22491;DHT22;11412;50.802;4.350;2022-12-18T12:31:33;2.90;99.90
22491;DHT22;11412;50.802;4.350;2022-12-18T12:37:02;2.60;99.90
22491;DHT22;11412;50.802;4.350;2022-12-18T12:39:38;2.70;99.90
22491;DHT22;11412;50.802;4.350;2022-12-18T12:42:18;2.40;99.90
22491;DHT22;11412;50.802;4.350;2022-12-18T12:45:05;2.60;99.90
22491;DHT22;11412;50.802;4.350;2022-12-18T12:47:36;2.70;99.90
22491;DHT22;11412;50.802;4.350;2022-12-18T12:50:06;2.40;99.90
22491;DHT22;11412;50.802;4.350;2022-12-18T12:52:40;2.40;99.90
22491;DHT22;11412;50.802;4.350;2022-12-18T12:55:17;2.70;99.90
22491;DHT22;11412;50.802;4.350;2022-12-18T12:57:52;2.60;99.90
22491;DHT22;11412;50.802;4.350;2022-12-18T13:00:21;2.50;99.90
22491;DHT22;11412;50.802;4.350;2022-12-18T13:03:01;2.70;99.90
22491;DHT22;11412;50.802;4.350;2022-12-18T13:05:33;2.70;99.90
22491;DHT22;11412;50.802;4.350;2022-12-18T13:08:09;2.70;99.90
22491;DHT22;11412;50.802;4.350;2022-12-18T13:10:38;2.50;99.90
22491;DHT22;11412;50.802;4.350;2022-12-18T13:13:15;2.50;99.90
22491;DHT22;11412;50.802;4.350;2022-12-18T13:15:42;2.80;99.90
22491;DHT22;11412;50.802;4.350;2022-12-18T13:18:24;2.80;99.90
22491;DHT22;11412;50.802;4.350;2022-12-18T13:31:00;2.60;99.90
22491;DHT22;11412;50.802;4.350;2022-12-18T13:36:12;2.70;99.90
22491;DHT22;11412;50.802;4.350;2022-12-18T13:38:39;2.80;99.90
22491;DHT22;11412;50.802;4.350;2022-12-18T13:43:47;3.00;99.90
22491;DHT22;11412;50.802;4.350;2022-12-18T13:49:31;2.90;99.90
22491;DHT22;11412;50.802;4.350;2022-12-18T13:52:02;2.90;99.90
22491;DHT22;11412;50.802;4.350;2022-12-18T13:57:00;2.60;99.90
22491;DHT22;11412;50.802;4.350;2022-12-18T14:02:01;2.60;99.90
22491;DHT22;11412;50.802;4.350;2022-12-18T14:04:35;2.30;99.90
22491;DHT22;11412;50.802;4.350;2022-12-18T14:07:07;2.20;99.90
22491;DHT22;11412;50.802;4.350;2022-12-18T14:09:42;2.40;99.90
22491;DHT22;11412;50.802;4.350;2022-12-18T14:17:54;2.50;99.90
22491;DHT22;11412;50.802;4.350;2022-12-18T14:20:21;2.60;99.90
22491;DHT22;11412;50.802;4.350;2022-12-18T14:22:49;2.40;99.90
22491;DHT22;11412;50.802;4.350;2022-12-18T14:25:21;2.40;99.90
22491;DHT22;11412;50.802;4.350;2022-12-18T14:28:07;2.50;99.90
22491;DHT22;11412;50.802;4.350;2022-12-18T14:30:43;2.40;99.90
22491;DHT22;11412;50.802;4.350;2022-12-18T14:41:04;2.60;99.90
22491;DHT22;11412;50.802;4.350;2022-12-18T14:43:33;2.60;99.90
22491;DHT22;11412;50.802;4.350;2022-12-18T14:45:59;2.50;99.90
22491;DHT22;11412;50.802;4.350;2022-12-18T14:48:40;2.20;99.90
22491;DHT22;11412;50.802;4.350;2022-12-18T14:51:20;2.20;99.90
22491;DHT22;11412;50.802;4.350;2022-12-18T14:56:22;2.10;99.90
22491;DHT22;11412;50.802;4.350;2022-12-18T14:58:52;2.00;99.90
22491;DHT22;11412;50.802;4.350;2022-12-18T15:01:25;2.30;99.90
22491;DHT22;11412;50.802;4.350;2022-12-18T15:03:52;2.10;99.90
22491;DHT22;11412;50.802;4.350;2022-12-18T15:08:51;2.30;99.90
22491;DHT22;11412;50.802;4.350;2022-12-18T15:11:43;2.20;99.90
22491;DHT22;11412;50.802;4.350;2022-12-18T15:14:41;2.20;99.90
22491;DHT22;11412;50.802;4.350;2022-12-18T15:17:20;2.20;99.90
22491;DHT22;11412;50.802;4.350;2022-12-18T15:19:48;2.40;99.90
22491;DHT22;11412;50.802;4.350;2022-12-18T15:22:25;2.20;99.90
22491;DHT22;11412;50.802;4.350;2022-12-18T15:24:53;2.10;99.90
22491;DHT22;11412;50.802;4.350;2022-12-18T15:27:28;2.30;99.90
22491;DHT22;11412;50.802;4.350;2022-12-18T15:32:36;2.20;99.90
22491;DHT22;11412;50.802;4.350;2022-12-18T15:37:39;2.50;99.90
22491;DHT22;11412;50.802;4.350;2022-12-18T15:40:05;2.30;99.90
22491;DHT22;11412;50.802;4.350;2022-12-18T15:42:32;2.20;99.90
22491;DHT22;11412;50.802;4.350;2022-12-18T15:45:16;2.30;99.90
22491;DHT22;11412;50.802;4.350;2022-12-18T15:47:42;2.50;99.90
22491;DHT22;11412;50.802;4.350;2022-12-18T15:50:08;2.70;99.90
22491;DHT22;11412;50.802;4.350;2022-12-18T15:52:40;2.40;99.90
22491;DHT22;11412;50.802;4.350;2022-12-18T15:55:15;2.30;99.90
22491;DHT22;11412;50.802;4.350;2022-12-18T15:58:00;2.40;99.90
22491;DHT22;11412;50.802;4.350;2022-12-18T16:00:25;2.40;99.90
22491;DHT22;11412;50.802;4.350;2022-12-18T16:02:51;2.60;99.90
22491;DHT22;11412;50.802;4.350;2022-12-18T16:05:18;2.70;99.90
22491;DHT22;11412;50.802;4.350;2022-12-18T16:07:44;2.80;99.90
22491;DHT22;11412;50.802;4.350;2022-12-18T16:10:10;2.90;99.90
22491;DHT22;11412;50.802;4.350;2022-12-18T16:12:36;2.70;99.90
22491;DHT22;11412;50.802;4.350;2022-12-18T16:15:03;2.50;99.90
22491;DHT22;11412;50.802;4.350;2022-12-18T16:17:29;2.70;99.90
22491;DHT22;11412;50.802;4.350;2022-12-18T16:19:55;2.90;99.90
22491;DHT22;11412;50.802;4.350;2022-12-18T16:22:23;2.70;99.90
22491;DHT22;11412;50.802;4.350;2022-12-18T16:24:51;2.50;99.90
22491;DHT22;11412;50.802;4.350;2022-12-18T16:27:17;2.40;99.90
22491;DHT22;11412;50.802;4.350;2022-12-18T16:29:43;2.70;99.90
22491;DHT22;11412;50.802;4.350;2022-12-18T16:32:13;2.60;99.90
22491;DHT22;11412;50.802;4.350;2022-12-18T16:34:39;2.60;99.90
22491;DHT22;11412;50.802;4.350;2022-12-18T16:37:07;2.60;99.90
22491;DHT22;11412;50.802;4.350;2022-12-18T16:39:34;2.50;99.90
22491;DHT22;11412;50.802;4.350;2022-12-18T16:42:00;2.40;99.90
22491;DHT22;11412;50.802;4.350;2022-12-18T16:44:26;2.40;99.90
22491;DHT22;11412;50.802;4.350;2022-12-18T16:46:52;2.40;99.90
22491;DHT22;11412;50.802;4.350;2022-12-18T16:49:19;2.60;99.90
22491;DHT22;11412;50.802;4.350;2022-12-18T16:51:48;2.60;99.90
22491;DHT22;11412;50.802;4.350;2022-12-18T16:54:13;2.60;99.90
22491;DHT22;11412;50.802;4.350;2022-12-18T16:56:40;2.50;99.90
22491;DHT22;11412;50.802;4.350;2022-12-18T16:59:07;2.80;99.90
22491;DHT22;11412;50.802;4.350;2022-12-18T17:01:34;2.90;99.90
22491;DHT22;11412;50.802;4.350;2022-12-18T17:04:02;2.70;99.90
22491;DHT22;11412;50.802;4.350;2022-12-18T17:06:30;2.50;99.90
22491;DHT22;11412;50.802;4.350;2022-12-18T17:09:01;2.60;99.90
22491;DHT22;11412;50.802;4.350;2022-12-18T17:11:29;2.70;99.90
22491;DHT22;11412;50.802;4.350;2022-12-18T17:13:55;2.90;99.90
22491;DHT22;11412;50.802;4.350;2022-12-18T17:16:22;3.10;99.90
22491;DHT22;11412;50.802;4.350;2022-12-18T17:18:49;3.10;99.90
22491;DHT22;11412;50.802;4.350;2022-12-18T17:21:15;2.90;99.90
22491;DHT22;11412;50.802;4.350;2022-12-18T17:23:42;2.90;99.90
22491;DHT22;11412;50.802;4.350;2022-12-18T17:26:08;2.80;99.90
22491;DHT22;11412;50.802;4.350;2022-12-18T17:28:36;2.90;99.90
22491;DHT22;11412;50.802;4.350;2022-12-18T17:31:27;3.00;99.90
22491;DHT22;11412;50.802;4.350;2022-12-18T17:33:53;3.00;99.90
22491;DHT22;11412;50.802;4.350;2022-12-18T17:36:20;2.90;99.90
22491;DHT22;11412;50.802;4.350;2022-12-18T17:38:54;2.80;99.90
22491;DHT22;11412;50.802;4.350;2022-12-18T17:41:20;2.70;99.90